createdAt,value
2022-10-19T00:01:59.211Z,4.97
2022-10-19T00:07:00.898Z,5.32
2022-10-19T00:12:02.510Z,5.30
2022-10-19T00:17:04.255Z,5.13
2022-10-19T00:22:07.189Z,4.95
2022-10-19T00:27:24.087Z,4.97
2022-10-19T00:32:25.742Z,5.07
2022-10-19T00:37:27.580Z,5.75
2022-10-19T00:42:29.242Z,4.15
2022-10-19T00:47:31.681Z,4.38
2022-10-19T00:52:33.569Z,4.90
2022-10-19T00:57:35.939Z,4.20
2022-10-19T01:02:37.711Z,4.05
2022-10-19T01:07:39.501Z,3.90
2022-10-19T01:13:02.768Z,3.58
2022-10-19T01:18:36.804Z,4.50
2022-10-19T01:23:53.633Z,4.38
2022-10-19T01:29:22.857Z,3.97
2022-10-19T01:35:12.551Z,3.08
2022-10-19T01:40:55.999Z,4.30
2022-10-19T01:46:27.527Z,3.92
2022-10-19T01:51:34.566Z,3.80
2022-10-19T01:56:37.775Z,3.58
2022-10-19T02:01:44.015Z,3.70
2022-10-19T02:06:46.038Z,3.40
2022-10-19T02:11:57.903Z,3.30
2022-10-19T02:17:03.482Z,3.35
2022-10-19T02:22:05.293Z,3.53
2022-10-19T02:27:08.241Z,3.08
2022-10-19T02:32:10.397Z,3.03
2022-10-19T02:37:12.156Z,3.58
2022-10-19T02:42:22.577Z,3.13
2022-10-19T02:47:30.040Z,3.40
2022-10-19T02:52:31.749Z,3.10
2022-10-19T02:57:33.943Z,3.17
2022-10-19T03:02:35.816Z,3.10
2022-10-19T03:07:37.822Z,2.85
2022-10-19T03:12:39.535Z,3.17
2022-10-19T03:17:41.151Z,3.53
2022-10-19T03:22:42.916Z,3.42
2022-10-19T03:27:44.654Z,3.28
2022-10-19T03:32:46.287Z,2.90
2022-10-19T03:37:47.892Z,3.55
2022-10-19T03:42:49.500Z,2.90
2022-10-19T03:47:51.446Z,3.00
2022-10-19T03:52:55.304Z,3.20
2022-10-19T03:57:57.967Z,2.88
2022-10-19T04:02:59.672Z,3.55
2022-10-19T04:08:01.371Z,3.22
2022-10-19T04:13:02.964Z,3.33
2022-10-19T04:18:04.656Z,3.38
2022-10-19T04:23:06.368Z,4.25
2022-10-19T04:28:08.072Z,3.63
2022-10-19T04:33:09.763Z,4.25
2022-10-19T04:38:11.406Z,3.92
2022-10-19T04:43:13.085Z,4.75
2022-10-19T04:48:15.271Z,3.30
2022-10-19T04:53:17.861Z,3.85
2022-10-19T04:58:19.488Z,3.40
2022-10-19T05:03:21.189Z,4.00
2022-10-19T05:08:22.790Z,10.88
2022-10-19T05:13:24.476Z,4.40
2022-10-19T05:18:27.109Z,4.40
2022-10-19T05:23:29.532Z,3.47
2022-10-19T05:28:31.935Z,3.80
2022-10-19T05:33:34.171Z,5.25
2022-10-19T05:38:35.835Z,3.97
2022-10-19T05:43:37.634Z,4.60
2022-10-19T05:48:40.139Z,4.35
2022-10-19T05:53:42.295Z,5.10
2022-10-19T05:58:44.560Z,4.03
2022-10-19T06:03:48.065Z,5.63
2022-10-19T06:08:50.816Z,4.20
2022-10-19T06:13:55.458Z,4.78
2022-10-19T06:18:58.255Z,4.50
2022-10-19T06:24:03.003Z,4.32
2022-10-19T06:29:05.694Z,4.45
2022-10-19T06:34:07.489Z,5.88
2022-10-19T06:39:09.218Z,4.50
2022-10-19T06:44:10.859Z,5.20
2022-10-19T06:49:14.581Z,5.05
2022-10-19T06:54:16.245Z,5.63
2022-10-19T06:59:20.025Z,5.63
2022-10-19T07:04:21.636Z,4.95
2022-10-19T07:09:23.350Z,5.55
2022-10-19T07:14:25.289Z,5.75
2022-10-19T07:19:27.189Z,5.75
2022-10-19T07:24:28.885Z,4.60
2022-10-19T07:29:30.536Z,3.72
2022-10-19T07:34:32.366Z,4.07
2022-10-19T07:39:34.106Z,3.67
2022-10-19T07:44:36.404Z,3.58
2022-10-19T07:49:38.409Z,3.33
2022-10-19T07:54:40.305Z,3.55
2022-10-19T07:59:42.110Z,2.85
2022-10-19T08:05:02.818Z,2.30
2022-10-19T08:10:06.280Z,2.03
2022-10-19T08:15:08.226Z,1.73
2022-10-19T08:20:10.171Z,2.35
2022-10-19T08:25:11.893Z,1.58
2022-10-19T08:30:13.568Z,1.67
2022-10-19T08:35:15.250Z,1.13
2022-10-19T08:40:23.817Z,2.13
2022-10-19T08:45:50.934Z,1.38
2022-10-19T08:50:53.440Z,1.58
2022-10-19T08:56:04.924Z,1.40
2022-10-19T09:01:17.044Z,1.70
2022-10-19T09:06:37.454Z,1.35
2022-10-19T09:11:44.346Z,1.10
2022-10-19T09:16:46.471Z,1.83
2022-10-19T09:22:11.262Z,1.48
2022-10-19T09:27:31.804Z,1.02
2022-10-19T09:32:39.095Z,0.93
2022-10-19T09:37:45.820Z,1.27
2022-10-19T09:42:51.308Z,0.75
2022-10-19T09:47:53.464Z,1.80
2022-10-19T09:53:05.343Z,1.10
2022-10-19T09:58:18.302Z,0.85
2022-10-19T10:03:28.256Z,1.08
2022-10-19T10:08:33.500Z,1.77
2022-10-19T10:13:41.844Z,1.10
2022-10-19T10:18:58.930Z,1.75
2022-10-19T10:24:03.064Z,1.45
2022-10-19T10:29:20.157Z,1.30
2022-10-19T10:34:50.264Z,1.60
2022-10-19T10:39:57.911Z,0.93
2022-10-19T10:45:03.449Z,1.65
2022-10-19T10:50:07.711Z,1.83
2022-10-19T10:55:09.330Z,1.27
2022-10-19T11:00:16.797Z,1.00
2022-10-19T11:05:31.733Z,0.98
2022-10-19T11:10:52.833Z,1.50
2022-10-19T11:16:02.717Z,1.65
2022-10-19T11:21:12.826Z,1.88
2022-10-19T11:26:33.099Z,1.10
2022-10-19T11:31:47.366Z,1.00
2022-10-19T11:36:59.315Z,2.63
2022-10-19T11:42:19.315Z,1.70
2022-10-19T11:47:42.052Z,1.15
2022-10-19T11:53:01.110Z,1.08
2022-10-19T11:58:24.766Z,0.82
2022-10-19T12:04:04.201Z,0.90
2022-10-19T12:09:22.879Z,0.82
2022-10-19T12:14:29.378Z,1.52
2022-10-19T12:19:46.953Z,1.63
2022-10-19T12:24:50.852Z,0.90
2022-10-19T12:29:53.938Z,1.05
2022-10-19T12:35:04.608Z,1.23
2022-10-19T12:40:26.275Z,1.25
2022-10-19T12:45:27.929Z,1.30
2022-10-19T12:50:48.478Z,1.27
2022-10-19T12:56:14.721Z,0.95
2022-10-19T13:01:19.870Z,1.30
2022-10-19T13:06:24.606Z,1.75
2022-10-19T13:11:26.621Z,1.00
2022-10-19T13:16:28.286Z,1.20
2022-10-19T13:22:02.291Z,1.23
2022-10-19T13:27:03.889Z,1.50
2022-10-19T13:32:43.544Z,1.90
2022-10-19T13:37:45.299Z,1.20
2022-10-19T13:42:46.990Z,1.10
2022-10-19T13:47:56.669Z,1.30
2022-10-19T13:53:27.704Z,1.70
2022-10-19T13:58:58.962Z,1.40
2022-10-19T14:04:21.632Z,1.70
2022-10-19T14:10:04.067Z,1.42
2022-10-19T14:15:23.061Z,1.50
2022-10-19T14:20:38.191Z,1.52
2022-10-19T14:25:39.886Z,1.55
2022-10-19T14:30:41.513Z,2.10
2022-10-19T14:35:48.865Z,1.95
2022-10-19T14:40:50.574Z,1.63
2022-10-19T14:46:07.683Z,1.50
2022-10-19T14:51:28.215Z,3.65
2022-10-19T14:56:58.275Z,1.63
2022-10-19T15:02:04.098Z,2.00
2022-10-19T15:07:17.483Z,2.22
2022-10-19T15:12:23.647Z,1.88
2022-10-19T15:17:31.239Z,2.38
2022-10-19T15:22:32.971Z,2.13
2022-10-19T15:27:35.979Z,1.85
2022-10-19T15:32:38.512Z,2.00
2022-10-19T15:37:44.069Z,2.38
2022-10-19T15:42:48.738Z,2.38
2022-10-19T15:48:10.363Z,2.63
2022-10-19T15:53:11.940Z,3.00
2022-10-19T15:58:14.306Z,3.70
2022-10-19T16:03:16.482Z,2.95
2022-10-19T16:08:18.185Z,3.17
2022-10-19T16:13:19.788Z,3.17
2022-10-19T16:18:21.424Z,2.97
2022-10-19T16:23:23.312Z,3.78
2022-10-19T16:28:25.055Z,4.30
2022-10-19T16:33:26.657Z,2.97
2022-10-19T16:38:29.278Z,3.10
2022-10-19T16:43:31.070Z,2.67
2022-10-19T16:48:33.365Z,2.90
2022-10-19T16:53:37.990Z,2.75
2022-10-19T16:58:41.050Z,3.97
2022-10-19T17:03:46.922Z,5.63
2022-10-19T17:14:12.694Z,3.55
2022-10-19T17:19:14.556Z,3.00
2022-10-19T17:24:21.650Z,3.30
2022-10-19T17:29:24.243Z,3.13
2022-10-19T17:34:27.323Z,2.95
2022-10-19T17:39:29.997Z,3.38
2022-10-19T17:44:32.000Z,2.72
2022-10-19T17:49:33.696Z,3.47
2022-10-19T17:54:43.639Z,3.38
2022-10-19T17:59:56.985Z,4.43
2022-10-19T18:04:59.976Z,3.75
2022-10-19T18:10:01.787Z,4.00
2022-10-19T18:15:03.719Z,5.00
2022-10-19T18:20:05.838Z,4.60
2022-10-19T18:25:07.734Z,4.28
2022-10-19T18:30:10.025Z,4.50
2022-10-19T18:35:11.938Z,3.55
2022-10-19T18:40:13.704Z,3.92
2022-10-19T18:45:15.370Z,4.45
2022-10-19T18:50:17.676Z,4.22
2022-10-19T18:55:19.506Z,4.45
2022-10-19T19:00:21.134Z,4.97
2022-10-19T19:05:23.192Z,3.85
2022-10-19T19:10:25.037Z,4.25
2022-10-19T19:15:26.677Z,3.90
2022-10-19T19:20:28.348Z,3.53
2022-10-19T19:25:30.262Z,3.75
2022-10-19T19:30:31.935Z,3.33
2022-10-19T19:35:34.033Z,3.20
2022-10-19T19:40:40.240Z,3.88
2022-10-19T19:45:45.190Z,4.40
2022-10-19T19:50:47.153Z,3.90
2022-10-19T19:55:49.609Z,3.40
2022-10-19T20:00:51.329Z,3.05
2022-10-19T20:05:52.933Z,3.63
2022-10-19T20:10:54.511Z,2.75
2022-10-19T20:15:56.130Z,4.15
2022-10-19T20:21:02.249Z,2.97
2022-10-19T20:26:04.134Z,3.70
2022-10-19T20:31:08.658Z,3.42
2022-10-19T20:36:20.142Z,3.08
2022-10-19T20:41:24.005Z,3.50
2022-10-19T20:46:28.874Z,3.20
2022-10-19T20:51:33.646Z,3.10
2022-10-19T20:56:40.054Z,3.08
2022-10-19T21:01:43.935Z,3.10
2022-10-19T21:06:48.419Z,2.92
2022-10-19T21:11:51.447Z,3.60
2022-10-19T21:16:53.385Z,4.07
2022-10-19T21:22:01.672Z,2.92
2022-10-19T21:27:07.575Z,3.38
2022-10-19T21:32:09.603Z,3.08
2022-10-19T21:42:12.880Z,3.45
2022-10-19T21:47:14.543Z,3.20
2022-10-19T21:52:16.308Z,3.15
2022-10-19T21:57:17.962Z,3.60
2022-10-19T22:02:19.575Z,2.60
2022-10-19T22:07:21.247Z,3.28
2022-10-19T22:12:22.923Z,3.30
2022-10-19T22:17:24.506Z,3.10
2022-10-19T22:22:26.129Z,3.10
2022-10-19T22:27:27.850Z,2.97
2022-10-19T22:32:29.663Z,5.03
2022-10-19T22:37:31.470Z,3.25
2022-10-19T22:42:33.330Z,3.38
2022-10-19T22:47:35.193Z,3.15
2022-10-19T22:52:37.387Z,3.58
2022-10-19T22:57:39.263Z,3.45
2022-10-19T23:02:40.926Z,5.50
2022-10-19T23:07:42.602Z,4.38
2022-10-19T23:12:44.186Z,4.88
2022-10-19T23:17:46.061Z,5.00
2022-10-19T23:22:47.816Z,4.63
2022-10-19T23:27:49.456Z,4.85
2022-10-19T23:32:51.116Z,3.92
2022-10-19T23:37:52.791Z,3.97
2022-10-19T23:42:54.434Z,4.70
2022-10-19T23:47:56.079Z,3.83
2022-10-19T23:52:57.776Z,3.60
2022-10-19T23:57:59.526Z,3.80
